createdAt,value
2019-05-06T04:23:06.475Z,160.00
2019-05-06T04:49:26.691Z,596.00
2019-05-06T04:50:26.678Z,584.00
2019-05-06T05:17:48.410Z,1052.00
2019-05-06T05:18:48.375Z,1020.00
2019-05-06T05:39:48.137Z,852.00
2019-05-06T05:42:48.114Z,932.00
2019-05-06T06:08:09.826Z,876.00
2019-05-06T06:13:09.596Z,956.00
2019-05-06T06:14:09.572Z,988.00
2019-05-06T06:16:09.597Z,1032.00
2019-05-06T06:17:09.535Z,1036.00
2019-05-06T06:18:09.527Z,1052.00
2019-05-06T06:22:33.066Z,1196.00
2019-05-06T06:23:32.422Z,1216.00
2019-05-06T06:25:33.472Z,1260.00
2019-05-06T06:27:33.192Z,1296.00
2019-05-06T06:28:33.307Z,1316.00
2019-05-06T06:29:32.372Z,1340.00
2019-05-06T06:30:33.131Z,1336.00
2019-05-06T06:33:32.979Z,1336.00
2019-05-06T06:34:32.954Z,1332.00
2019-05-06T06:35:32.444Z,1340.00
2019-05-06T06:36:32.576Z,1348.00
2019-05-06T06:38:32.353Z,1340.00
2019-05-06T06:39:32.668Z,1328.00
2019-05-06T06:40:32.982Z,1304.00
2019-05-06T06:41:32.331Z,1292.00
2019-05-06T06:42:33.371Z,1288.00
2019-05-06T06:43:32.374Z,1244.00
2019-05-06T06:44:33.135Z,1212.00
2019-05-06T06:45:32.546Z,1236.00
2019-05-06T06:46:32.325Z,1284.00
2019-05-06T06:47:32.049Z,1352.00
2019-05-06T06:48:32.015Z,1420.00
2019-05-06T06:49:32.890Z,1500.00
2019-05-06T06:50:32.967Z,1548.00
2019-05-06T06:51:33.076Z,1500.00
2019-05-06T06:52:32.656Z,1352.00
2019-05-06T06:53:32.708Z,1096.00
2019-05-06T06:54:32.371Z,1116.00
2019-05-06T06:55:31.851Z,1228.00
2019-05-06T06:56:33.027Z,1352.00
2019-05-06T06:57:34.149Z,1440.00
2019-05-06T06:58:32.336Z,1560.00
2019-05-06T06:59:31.898Z,2300.00
2019-05-06T07:00:33.510Z,2296.00
2019-05-06T07:01:33.181Z,2296.00
2019-05-06T07:02:32.783Z,1928.00
2019-05-06T07:03:32.705Z,1596.00
2019-05-06T07:04:32.438Z,1524.00
2019-05-06T07:05:33.191Z,1416.00
2019-05-06T07:06:34.167Z,2004.00
2019-05-06T07:07:43.112Z,1840.00
2019-05-06T07:09:32.760Z,3044.00
2019-05-06T07:10:32.472Z,2748.00
2019-05-06T07:11:33.157Z,2884.00
2019-05-06T07:12:32.783Z,2520.00
2019-05-06T07:13:33.787Z,2248.00
2019-05-06T07:14:36.154Z,2384.00
2019-05-06T07:15:33.815Z,2160.00
2019-05-06T07:16:32.792Z,2168.00
2019-05-06T07:17:32.819Z,2716.00
2019-05-06T07:18:33.681Z,2700.00
2019-05-06T07:19:32.701Z,2292.00
2019-05-06T07:20:32.510Z,2328.00
2019-05-06T07:21:34.068Z,2412.00
2019-05-06T07:22:32.475Z,2620.00
2019-05-06T07:23:32.674Z,2424.00
2019-05-06T07:24:32.524Z,2280.00
2019-05-06T07:25:33.601Z,2240.00
2019-05-06T07:26:31.953Z,2196.00
2019-05-06T07:27:32.417Z,2376.00
2019-05-06T07:28:32.649Z,2392.00
2019-05-06T07:29:32.771Z,2416.00
2019-05-06T07:30:32.296Z,2620.00
2019-05-06T07:31:33.038Z,2900.00
2019-05-06T07:32:32.607Z,2400.00
2019-05-06T07:33:33.737Z,2412.00
2019-05-06T07:34:32.208Z,2552.00
2019-05-06T07:35:40.793Z,2680.00
2019-05-06T07:37:22.150Z,2792.00
2019-05-06T07:38:23.077Z,2792.00
2019-05-06T07:39:23.797Z,2748.00
2019-05-06T07:40:22.392Z,2580.00
2019-05-06T07:41:23.381Z,2556.00
2019-05-06T07:42:22.719Z,2624.00
2019-05-06T07:43:22.006Z,2692.00
2019-05-06T07:44:22.447Z,2384.00
2019-05-06T07:45:22.009Z,2292.00
2019-05-06T07:46:23.597Z,2428.00
2019-05-06T07:47:23.941Z,2428.00
2019-05-06T07:48:22.143Z,2588.00
2019-05-06T07:49:23.390Z,2760.00
2019-05-06T07:50:22.367Z,2852.00
2019-05-06T07:51:20.831Z,2736.00
2019-05-06T07:52:22.867Z,2460.00
2019-05-06T07:53:22.387Z,2448.00
2019-05-06T07:54:22.036Z,2312.00
2019-05-06T07:55:22.878Z,2108.00
2019-05-06T07:56:22.431Z,2008.00
2019-05-06T07:57:22.034Z,2008.00
2019-05-06T07:58:22.634Z,1948.00
2019-05-06T07:59:22.531Z,1976.00
2019-05-06T08:00:22.908Z,1988.00
2019-05-06T08:01:25.516Z,1980.00
2019-05-06T08:02:22.987Z,2056.00
2019-05-06T08:03:22.257Z,2092.00
2019-05-06T08:04:22.926Z,1992.00
2019-05-06T08:05:22.441Z,1908.00
2019-05-06T08:06:22.668Z,1848.00
2019-05-06T08:07:22.329Z,1868.00
2019-05-06T08:08:22.843Z,1852.00
2019-05-06T08:09:22.117Z,1644.00
2019-05-06T08:10:22.079Z,1520.00
2019-05-06T08:11:22.614Z,1476.00
2019-05-06T08:12:22.240Z,1376.00
2019-05-06T08:13:22.636Z,1324.00
2019-05-06T08:14:52.337Z,1296.00
2019-05-06T08:15:52.943Z,1304.00
2019-05-06T08:16:50.710Z,1312.00
2019-05-06T08:17:52.445Z,1352.00
2019-05-06T08:18:52.369Z,1364.00
2019-05-06T08:19:52.753Z,1336.00
2019-05-06T08:20:51.996Z,1344.00
2019-05-06T08:21:52.128Z,1348.00
2019-05-06T08:22:52.592Z,1352.00
2019-05-06T08:23:52.246Z,1396.00
2019-05-06T08:24:50.606Z,1456.00
2019-05-06T08:25:52.784Z,1492.00
2019-05-06T08:26:52.187Z,1512.00
2019-05-06T08:27:53.052Z,1584.00
2019-05-06T08:28:52.638Z,1588.00
2019-05-06T08:29:52.490Z,1508.00
2019-05-06T08:30:50.538Z,1396.00
2019-05-06T08:31:52.365Z,1280.00
2019-05-06T08:32:52.726Z,1244.00
2019-05-06T08:33:52.455Z,1224.00
2019-05-06T08:34:52.279Z,1184.00
2019-05-06T08:35:50.497Z,1172.00
2019-05-06T08:36:50.475Z,1204.00
2019-05-06T08:37:50.458Z,1252.00
2019-05-06T08:38:50.475Z,1272.00
2019-05-06T08:39:52.537Z,1292.00
2019-05-06T08:40:52.509Z,1288.00
2019-05-06T08:41:50.421Z,1268.00
2019-05-06T08:42:53.047Z,1200.00
2019-05-06T08:43:52.671Z,1144.00
2019-05-06T08:44:50.389Z,1196.00
2019-05-06T08:45:52.643Z,1424.00
2019-05-06T08:46:50.393Z,1768.00
2019-05-06T08:47:52.252Z,1988.00
2019-05-06T08:48:52.367Z,2060.00
2019-05-06T08:49:52.682Z,2180.00
2019-05-06T08:50:50.319Z,2360.00
2019-05-06T08:51:50.319Z,2532.00
2019-05-06T08:52:52.325Z,2780.00
2019-05-06T08:53:50.299Z,2848.00
2019-05-06T08:54:50.275Z,2888.00
2019-05-06T08:55:50.269Z,2816.00
2019-05-06T08:56:52.248Z,2796.00
2019-05-06T08:57:50.242Z,2824.00
2019-05-06T08:58:52.594Z,2704.00
2019-05-06T08:59:50.210Z,2452.00
2019-05-06T09:00:50.206Z,2380.00
2019-05-06T09:01:50.265Z,2224.00
2019-05-06T09:02:50.196Z,2104.00
2019-05-06T09:04:05.568Z,1996.00
2019-05-06T09:05:12.379Z,2000.00
2019-05-06T09:06:24.503Z,1980.00
2019-05-06T09:07:34.445Z,1900.00
2019-05-06T09:08:34.435Z,1964.00
2019-05-06T09:09:34.415Z,2156.00
2019-05-06T09:10:34.400Z,2160.00
2019-05-06T09:11:34.385Z,1984.00
2019-05-06T09:12:34.414Z,1904.00
2019-05-06T09:13:34.370Z,1872.00
2019-05-06T09:14:34.345Z,1912.00
2019-05-06T09:31:32.240Z,2276.00
2019-05-06T09:32:36.057Z,2460.00
2019-05-06T09:33:33.134Z,2432.00
2019-05-06T09:34:32.620Z,2496.00
2019-05-06T09:35:32.907Z,2520.00
2019-05-06T09:36:43.596Z,2384.00
2019-05-06T09:37:53.875Z,2200.00
2019-05-06T09:38:53.855Z,2256.00
2019-05-06T09:39:53.861Z,2228.00
2019-05-06T09:40:53.821Z,2060.00
2019-05-06T09:41:57.726Z,1988.00
2019-05-06T09:42:53.835Z,1988.00
2019-05-06T09:43:53.799Z,1992.00
2019-05-06T09:44:54.515Z,1908.00
2019-05-06T09:45:53.786Z,1816.00
2019-05-06T09:46:53.765Z,1760.00
2019-05-06T09:47:53.748Z,1812.00
2019-05-06T09:48:53.736Z,1932.00
2019-05-06T09:49:53.948Z,2120.00
2019-05-06T09:50:53.948Z,2236.00
2019-05-06T09:51:53.726Z,2220.00
2019-05-06T09:52:53.697Z,2220.00
2019-05-06T09:53:53.680Z,2308.00
2019-05-06T09:54:53.779Z,2328.00
2019-05-06T09:55:53.687Z,2332.00
2019-05-06T09:56:53.670Z,2372.00
2019-05-06T09:57:53.667Z,2388.00
2019-05-06T09:58:53.642Z,2328.00
2019-05-06T09:59:53.615Z,2368.00
2019-05-06T10:00:53.622Z,2416.00
2019-05-06T10:01:53.595Z,2388.00
2019-05-06T10:02:53.591Z,2328.00
2019-05-06T10:03:53.594Z,2304.00
2019-05-06T10:04:53.577Z,2288.00
2019-05-06T10:05:53.556Z,2392.00
2019-05-06T10:06:57.253Z,2456.00
2019-05-06T10:08:15.370Z,2380.00
2019-05-06T10:09:16.356Z,2384.00
2019-05-06T10:10:17.788Z,2412.00
2019-05-06T10:11:15.379Z,2488.00
2019-05-06T10:12:15.304Z,2500.00
2019-05-06T10:13:15.346Z,2664.00
2019-05-06T10:14:15.295Z,2836.00
2019-05-06T10:15:15.281Z,2948.00
2019-05-06T10:16:15.271Z,2984.00
2019-05-06T10:17:15.316Z,3164.00
2019-05-06T10:18:15.267Z,3208.00
2019-05-06T10:19:15.244Z,3220.00
2019-05-06T10:20:15.250Z,3352.00
2019-05-06T10:21:15.221Z,3336.00
2019-05-06T10:22:15.216Z,3296.00
2019-05-06T10:23:15.192Z,3220.00
2019-05-06T10:24:15.166Z,3140.00
2019-05-06T10:25:15.170Z,3268.00
2019-05-06T10:26:15.152Z,3292.00
2019-05-06T10:27:15.136Z,3252.00
2019-05-06T10:28:15.167Z,3256.00
2019-05-06T10:29:15.113Z,3440.00
2019-05-06T10:30:15.138Z,3360.00
2019-05-06T10:31:15.102Z,3256.00
2019-05-06T10:32:15.093Z,3228.00
2019-05-06T10:33:15.079Z,3288.00
2019-05-06T10:34:15.066Z,3152.00
2019-05-06T10:35:15.054Z,3004.00
2019-05-06T10:36:15.075Z,3004.00
2019-05-06T10:37:18.904Z,3040.00
2019-05-06T10:38:15.029Z,3196.00
2019-05-06T10:39:15.016Z,3296.00
2019-05-06T10:40:15.009Z,3144.00
2019-05-06T10:41:14.996Z,3104.00
2019-05-06T10:42:14.973Z,3152.00
2019-05-06T10:43:15.003Z,3196.00
2019-05-06T10:44:14.963Z,3352.00
2019-05-06T10:45:14.955Z,3404.00
2019-05-06T10:46:14.959Z,3360.00
2019-05-06T10:47:15.940Z,3232.00
2019-05-06T10:48:14.922Z,3224.00
2019-05-06T10:49:14.895Z,3352.00
2019-05-06T10:50:14.880Z,3420.00
2019-05-06T10:51:17.084Z,3368.00
2019-05-06T10:52:15.072Z,3240.00
2019-05-06T10:53:14.858Z,3248.00
2019-05-06T10:54:14.838Z,3108.00
2019-05-06T10:55:14.847Z,2972.00
2019-05-06T10:56:14.808Z,2824.00
2019-05-06T10:57:14.796Z,2708.00
2019-05-06T10:58:14.801Z,2856.00
2019-05-06T10:59:14.797Z,3120.00
2019-05-06T11:00:15.931Z,3248.00
2019-05-06T11:01:14.773Z,3212.00
2019-05-06T11:02:14.753Z,3076.00
2019-05-06T11:03:15.109Z,2868.00
2019-05-06T11:04:14.720Z,2760.00
2019-05-06T11:05:14.730Z,2600.00
2019-05-06T11:06:14.712Z,2512.00
2019-05-06T11:07:28.158Z,2436.00
2019-05-06T11:08:36.442Z,2300.00
2019-05-06T11:09:36.474Z,2092.00
2019-05-06T11:10:41.128Z,1808.00
2019-05-06T11:11:38.732Z,1580.00
2019-05-06T11:12:36.402Z,1448.00
2019-05-06T11:13:36.389Z,1340.00
2019-05-06T11:14:36.398Z,1280.00
2019-05-06T11:15:36.380Z,1240.00
2019-05-06T11:16:36.356Z,1220.00
2019-05-06T11:17:36.356Z,1216.00
2019-05-06T11:18:36.363Z,1248.00
2019-05-06T11:19:36.340Z,1272.00
2019-05-06T11:20:36.328Z,1240.00
2019-05-06T11:21:36.327Z,1240.00
2019-05-06T11:22:36.304Z,1276.00
2019-05-06T11:23:36.294Z,1268.00
2019-05-06T11:24:36.276Z,1224.00
2019-05-06T11:25:37.754Z,1180.00
2019-05-06T11:26:36.267Z,1108.00
2019-05-06T11:27:39.531Z,1112.00
2019-05-06T11:28:36.245Z,1132.00
2019-05-06T11:29:36.756Z,1088.00
2019-05-06T11:30:36.210Z,1076.00
2019-05-06T11:31:36.206Z,1076.00
2019-05-06T11:32:36.185Z,1052.00
2019-05-06T11:33:36.168Z,1016.00
2019-05-06T11:34:36.184Z,1012.00
2019-05-06T11:35:36.139Z,1076.00
2019-05-06T11:36:37.624Z,1120.00
2019-05-06T11:37:46.016Z,1116.00
2019-05-06T11:38:58.488Z,1092.00
2019-05-06T11:39:58.480Z,1120.00
2019-05-06T11:40:58.482Z,1100.00
2019-05-06T11:42:22.525Z,1104.00
2019-05-06T11:43:22.713Z,1296.00
2019-05-06T11:44:23.603Z,1472.00
2019-05-06T11:45:22.871Z,1540.00
2019-05-06T11:46:22.879Z,1468.00
2019-05-06T11:47:23.284Z,1268.00
2019-05-06T11:48:22.318Z,1176.00
2019-05-06T11:49:23.057Z,1156.00
2019-05-06T11:50:22.001Z,1180.00
2019-05-06T11:51:22.984Z,1144.00
2019-05-06T11:52:22.608Z,1192.00
2019-05-06T11:53:22.969Z,1324.00
2019-05-06T11:54:24.267Z,1472.00
2019-05-06T11:55:28.897Z,1652.00
2019-05-06T11:56:51.274Z,2060.00
2019-05-06T11:58:04.356Z,2332.00
2019-05-06T11:59:04.390Z,2472.00
2019-05-06T12:00:04.339Z,2564.00
2019-05-06T12:01:04.350Z,2560.00
2019-05-06T12:02:04.309Z,2552.00
2019-05-06T12:03:04.302Z,2644.00
2019-05-06T12:04:04.304Z,2716.00
2019-05-06T12:05:04.266Z,2684.00
2019-05-06T12:06:04.274Z,2568.00
2019-05-06T12:07:11.400Z,2412.00
2019-05-06T12:08:26.319Z,2320.00
2019-05-06T12:09:26.316Z,2428.00
2019-05-06T12:10:26.292Z,2452.00
2019-05-06T12:11:26.274Z,2380.00
2019-05-06T12:12:26.272Z,2076.00
2019-05-06T12:13:26.263Z,1728.00
2019-05-06T12:14:26.265Z,1540.00
2019-05-06T12:15:26.231Z,1492.00
2019-05-06T12:16:26.550Z,1412.00
2019-05-06T12:17:26.215Z,1368.00
2019-05-06T12:18:26.196Z,1412.00
2019-05-06T12:19:26.188Z,1512.00
2019-05-06T12:20:26.181Z,1540.00
2019-05-06T12:21:26.167Z,1412.00
2019-05-06T12:22:26.166Z,1324.00
2019-05-06T12:23:26.149Z,1440.00
2019-05-06T12:24:26.135Z,1604.00
2019-05-06T12:25:26.132Z,1676.00
2019-05-06T12:26:26.129Z,1616.00
2019-05-06T12:27:26.095Z,1540.00
2019-05-06T12:28:26.094Z,1420.00
2019-05-06T12:29:26.120Z,1428.00
2019-05-06T12:30:26.115Z,1556.00
2019-05-06T12:31:26.060Z,1704.00
2019-05-06T12:32:26.040Z,1892.00
2019-05-06T12:33:26.032Z,1980.00
2019-05-06T12:34:26.014Z,1984.00
2019-05-06T12:35:26.002Z,1932.00
2019-05-06T12:36:26.012Z,1896.00
2019-05-06T12:37:26.023Z,1844.00
2019-05-06T12:38:30.350Z,1812.00
2019-05-06T12:39:26.007Z,1796.00
2019-05-06T12:40:26.037Z,1784.00
2019-05-06T12:41:26.049Z,1704.00
2019-05-06T12:42:25.989Z,1628.00
2019-05-06T12:43:25.941Z,1552.00
2019-05-06T12:44:25.936Z,1484.00
2019-05-06T12:45:26.011Z,1472.00
2019-05-06T12:46:25.949Z,1432.00
2019-05-06T12:47:25.929Z,1388.00
2019-05-06T12:48:25.911Z,1348.00
2019-05-06T12:49:25.909Z,1316.00
2019-05-06T12:50:25.939Z,1312.00
2019-05-06T12:51:26.180Z,1312.00
2019-05-06T12:52:25.916Z,1308.00
2019-05-06T12:53:27.396Z,1328.00
2019-05-06T12:54:25.864Z,1316.00
2019-05-06T12:55:25.937Z,1308.00
2019-05-06T12:56:25.833Z,1248.00
2019-05-06T12:57:27.332Z,1196.00
2019-05-06T12:58:25.794Z,1168.00
2019-05-06T12:59:25.801Z,1148.00
2019-05-06T13:00:25.823Z,1148.00
2019-05-06T13:01:25.761Z,1180.00
2019-05-06T13:02:25.727Z,1172.00
2019-05-06T13:03:25.723Z,1148.00
2019-05-06T13:04:48.490Z,1148.00
2019-05-06T13:05:47.395Z,1144.00
2019-05-06T13:06:47.378Z,1104.00
2019-05-06T13:07:47.385Z,1080.00
2019-05-06T13:08:58.544Z,1064.00
2019-05-06T13:10:09.931Z,1044.00
2019-05-06T13:11:09.924Z,1032.00
2019-05-06T13:12:12.211Z,1044.00
2019-05-06T13:13:09.879Z,1080.00
2019-05-06T13:14:09.882Z,1124.00
2019-05-06T13:15:09.877Z,1152.00
2019-05-06T13:16:12.043Z,1200.00
2019-05-06T13:17:09.858Z,1252.00
2019-05-06T13:18:09.843Z,1276.00
2019-05-06T13:19:12.162Z,1296.00
2019-05-06T13:20:09.824Z,1296.00
2019-05-06T13:21:09.795Z,1340.00
2019-05-06T13:22:09.784Z,1408.00
2019-05-06T13:23:17.470Z,1428.00
2019-05-06T13:24:32.686Z,1464.00
2019-05-06T13:25:32.753Z,1452.00
2019-05-06T13:26:32.546Z,1424.00
2019-05-06T13:27:32.813Z,1408.00
2019-05-06T13:28:33.386Z,1420.00
2019-05-06T13:29:35.181Z,1436.00
2019-05-06T13:30:32.631Z,1420.00
2019-05-06T13:31:32.630Z,1432.00
2019-05-06T13:32:31.860Z,1440.00
2019-05-06T13:33:34.242Z,1444.00
2019-05-06T13:34:33.372Z,1448.00
2019-05-06T13:35:32.696Z,1464.00
2019-05-06T13:36:33.385Z,1492.00
2019-05-06T13:37:33.646Z,1508.00
2019-05-06T13:38:32.102Z,1484.00
2019-05-06T13:39:32.914Z,1492.00
2019-05-06T13:40:34.949Z,1516.00
2019-05-06T13:41:32.750Z,1492.00
2019-05-06T13:42:33.211Z,1460.00
2019-05-06T13:43:32.862Z,1460.00
2019-05-06T13:44:32.083Z,1520.00
2019-05-06T13:45:33.378Z,1576.00
2019-05-06T13:46:33.207Z,1580.00
2019-05-06T13:47:32.249Z,1572.00
2019-05-06T13:48:32.378Z,1508.00
2019-05-06T13:49:31.272Z,1452.00
2019-05-06T13:50:31.232Z,1468.00
2019-05-06T13:51:32.339Z,1532.00
2019-05-06T13:52:31.229Z,1616.00
2019-05-06T13:53:39.078Z,1748.00
2019-05-06T13:54:53.461Z,2032.00
2019-05-06T13:55:53.408Z,2200.00
2019-05-06T13:56:53.404Z,2284.00
2019-05-06T13:57:53.387Z,2316.00
2019-05-06T13:58:53.362Z,2320.00
2019-05-06T13:59:53.541Z,2340.00
2019-05-06T14:00:53.339Z,2372.00
2019-05-06T14:01:53.381Z,2352.00
2019-05-06T14:02:53.477Z,2316.00
2019-05-06T14:03:53.320Z,2268.00
2019-05-06T14:04:53.298Z,2236.00
2019-05-06T14:05:53.296Z,2220.00
2019-05-06T14:06:53.272Z,2192.00
2019-05-06T14:07:53.280Z,2176.00
2019-05-06T14:08:53.261Z,2188.00
2019-05-06T14:09:53.415Z,2196.00
2019-05-06T14:10:59.741Z,2200.00
2019-05-06T14:12:15.489Z,2192.00
2019-05-06T14:13:15.482Z,2196.00
2019-05-06T14:14:15.539Z,2228.00
2019-05-06T14:15:15.466Z,2248.00
2019-05-06T14:16:15.459Z,2260.00
2019-05-06T14:17:15.452Z,2264.00
2019-05-06T14:18:15.436Z,2300.00
2019-05-06T14:19:15.414Z,2308.00
2019-05-06T14:20:15.403Z,2340.00
2019-05-06T14:21:15.389Z,2380.00
2019-05-06T14:22:15.380Z,2412.00
2019-05-06T14:23:15.375Z,2420.00
2019-05-06T14:24:17.407Z,2448.00
2019-05-06T14:25:15.354Z,2476.00
2019-05-06T14:26:15.340Z,2488.00
2019-05-06T14:27:15.340Z,2504.00
2019-05-06T14:28:15.323Z,2508.00
2019-05-06T14:29:15.302Z,2504.00
2019-05-06T14:30:15.314Z,2496.00
2019-05-06T14:31:15.285Z,2488.00
2019-05-06T14:32:15.270Z,2484.00
2019-05-06T14:33:15.677Z,2488.00
2019-05-06T14:34:15.256Z,2504.00
2019-05-06T14:35:15.255Z,2508.00
2019-05-06T14:36:15.234Z,2528.00
2019-05-06T14:37:15.210Z,2532.00
2019-05-06T14:38:15.198Z,2524.00
2019-05-06T14:39:15.186Z,2524.00
2019-05-06T14:40:15.203Z,2500.00
2019-05-06T14:41:15.174Z,2456.00
2019-05-06T14:42:15.155Z,2420.00
2019-05-06T14:43:15.158Z,2396.00
2019-05-06T14:44:15.123Z,2344.00
2019-05-06T14:45:16.113Z,2288.00
2019-05-06T14:46:15.104Z,2244.00
2019-05-06T14:47:15.089Z,2176.00
2019-05-06T14:48:15.092Z,2100.00
2019-05-06T14:49:15.069Z,2080.00
2019-05-06T14:50:15.071Z,2092.00
2019-05-06T14:51:15.043Z,2036.00
2019-05-06T14:52:15.045Z,1912.00
2019-05-06T14:53:15.043Z,1780.00
2019-05-06T14:54:15.022Z,1620.00
2019-05-06T14:55:15.469Z,1488.00
2019-05-06T14:56:15.001Z,1556.00
2019-05-06T14:57:14.983Z,1468.00
2019-05-06T14:58:14.967Z,1556.00
2019-05-06T14:59:14.971Z,1632.00
2019-05-06T15:14:53.500Z,1156.00
2019-05-06T15:15:53.479Z,1104.00
2019-05-06T15:16:53.476Z,1048.00
2019-05-06T15:17:53.477Z,1032.00
2019-05-06T15:18:53.459Z,1024.00
2019-05-06T15:19:53.438Z,1012.00
2019-05-06T15:20:53.419Z,1068.00
2019-05-06T15:21:53.405Z,1148.00
2019-05-06T15:22:53.404Z,1248.00
2019-05-06T15:23:53.392Z,1376.00
2019-05-06T15:24:53.919Z,1484.00
2019-05-06T15:25:53.364Z,1608.00
2019-05-06T15:26:53.356Z,1716.00
2019-05-06T15:27:53.353Z,1824.00
2019-05-06T15:28:53.331Z,1900.00
2019-05-06T15:29:53.328Z,1896.00
2019-05-06T15:30:53.324Z,1788.00
2019-05-06T15:31:53.293Z,1732.00
2019-05-06T15:32:53.290Z,1736.00
2019-05-06T15:33:53.271Z,1736.00
2019-05-06T15:34:56.043Z,1696.00
2019-05-06T15:35:53.254Z,1684.00
2019-05-06T15:36:53.241Z,1700.00
2019-05-06T15:37:53.562Z,1724.00
2019-05-06T15:38:53.224Z,1740.00
2019-05-06T15:39:53.205Z,1724.00
2019-05-06T15:40:53.194Z,1656.00
2019-05-06T15:41:53.201Z,1556.00
2019-05-06T15:42:53.677Z,1496.00
2019-05-06T15:43:53.164Z,1440.00
2019-05-06T15:44:53.161Z,1408.00
2019-05-06T15:45:53.136Z,1368.00
2019-05-06T15:46:53.131Z,1376.00
2019-05-06T15:47:53.124Z,1460.00
2019-05-06T15:48:53.114Z,1484.00
2019-05-06T15:49:53.096Z,1448.00
2019-05-06T15:50:53.431Z,1376.00
2019-05-06T15:51:53.071Z,1288.00
2019-05-06T15:52:53.913Z,1228.00
2019-05-06T15:53:53.061Z,1228.00
2019-05-06T15:54:53.037Z,1276.00
2019-05-06T15:55:53.624Z,1320.00
2019-05-06T15:56:53.391Z,1272.00
2019-05-06T15:57:53.004Z,1200.00
2019-05-06T15:58:52.993Z,1160.00
2019-05-06T15:59:53.351Z,1060.00
2019-05-06T16:00:53.293Z,976.00
2019-05-06T16:01:53.297Z,896.00
2019-05-06T16:02:53.379Z,816.00
2019-05-06T16:03:53.399Z,780.00
2019-05-06T16:04:52.935Z,732.00
2019-05-06T16:05:55.214Z,652.00
2019-05-06T16:06:53.154Z,560.00
2019-05-06T16:07:53.124Z,488.00
2019-05-06T16:08:52.885Z,452.00
2019-05-06T16:09:55.297Z,424.00
2019-05-06T16:10:58.294Z,380.00
2019-05-06T16:12:14.423Z,288.00
2019-05-06T16:13:14.406Z,252.00
2019-05-06T16:14:14.396Z,232.00
2019-05-06T16:15:14.401Z,216.00
2019-05-06T16:16:14.379Z,208.00
2019-05-06T16:17:15.164Z,176.00
2019-05-06T16:18:14.373Z,152.00
2019-05-06T16:19:14.343Z,132.00
2019-05-06T16:20:14.331Z,120.00
2019-05-06T16:21:14.307Z,120.00
2019-05-06T16:22:14.300Z,116.00
2019-05-06T16:24:14.279Z,100.00
2019-05-06T16:25:14.273Z,92.00
2019-05-06T16:26:14.267Z,92.00
2019-05-06T16:27:14.257Z,92.00
2019-05-06T16:28:14.234Z,80.00
2019-05-06T16:29:14.225Z,72.00
2019-05-06T16:30:14.236Z,72.00
2019-05-06T16:31:14.223Z,64.00
2019-05-06T16:32:14.198Z,60.00
2019-05-06T16:33:15.974Z,56.00
2019-05-06T16:34:14.632Z,64.00
2019-05-06T16:36:14.165Z,92.00
2019-05-06T16:37:14.159Z,108.00
2019-05-06T16:38:14.127Z,116.00
2019-05-06T16:39:14.153Z,128.00
2019-05-06T16:40:14.101Z,136.00
2019-05-06T16:41:16.299Z,124.00
2019-05-06T16:42:14.082Z,112.00
2019-05-06T16:43:14.092Z,124.00
2019-05-06T16:44:14.100Z,116.00
2019-05-06T16:45:14.046Z,100.00
2019-05-06T16:47:14.052Z,104.00
2019-05-06T16:48:14.022Z,112.00
2019-05-06T16:49:14.287Z,116.00
2019-05-06T16:50:13.995Z,120.00
2019-05-06T16:51:14.014Z,128.00
2019-05-06T16:52:13.967Z,132.00
2019-05-06T16:53:13.964Z,140.00
2019-05-06T16:54:13.954Z,144.00
2019-05-06T16:55:13.958Z,152.00
2019-05-06T16:56:13.958Z,160.00
2019-05-06T16:57:13.918Z,164.00
2019-05-06T16:58:13.913Z,160.00
2019-05-06T16:59:13.894Z,152.00
2019-05-06T17:00:13.890Z,148.00
2019-05-06T17:01:15.237Z,136.00
2019-05-06T17:02:14.071Z,128.00
2019-05-06T17:04:14.607Z,108.00
2019-05-06T17:05:15.099Z,108.00
2019-05-06T17:06:14.115Z,120.00
2019-05-06T17:07:13.813Z,128.00
2019-05-06T17:08:13.813Z,124.00
2019-05-06T17:10:35.500Z,132.00
2019-05-06T17:11:35.609Z,140.00
2019-05-06T17:12:35.479Z,132.00
2019-05-06T17:13:37.638Z,152.00
2019-05-06T17:14:35.474Z,176.00
2019-05-06T17:15:35.443Z,188.00
2019-05-06T17:16:35.431Z,176.00
2019-05-06T17:17:43.521Z,160.00
2019-05-06T17:18:57.542Z,140.00
2019-05-06T17:19:57.531Z,132.00
2019-05-06T17:20:57.517Z,120.00
2019-05-06T17:21:57.515Z,128.00
2019-05-06T17:22:57.515Z,132.00
2019-05-06T17:23:57.497Z,144.00
2019-05-06T17:25:57.461Z,172.00
2019-05-06T17:26:57.460Z,192.00
2019-05-06T17:27:57.445Z,208.00
2019-05-06T17:28:57.431Z,224.00
2019-05-06T17:29:57.420Z,232.00
2019-05-06T17:30:57.412Z,224.00
2019-05-06T17:31:57.386Z,232.00
2019-05-06T17:32:57.395Z,236.00
2019-05-06T17:33:57.367Z,256.00
2019-05-06T17:34:57.928Z,232.00
2019-05-06T17:35:57.379Z,176.00
2019-05-06T17:36:57.335Z,156.00
2019-05-06T17:37:57.327Z,140.00
2019-05-06T17:38:57.319Z,136.00
2019-05-06T17:40:07.017Z,128.00
2019-05-06T17:41:22.231Z,120.00
2019-05-06T17:42:22.552Z,120.00
2019-05-06T17:43:22.366Z,116.00
2019-05-06T17:44:20.226Z,124.00
2019-05-06T17:45:21.838Z,120.00
2019-05-06T17:47:20.221Z,100.00
2019-05-06T17:50:22.400Z,100.00
2019-05-06T17:53:20.128Z,104.00
2019-05-06T17:56:22.079Z,84.00
2019-05-06T17:59:20.093Z,84.00
2019-05-06T18:08:20.013Z,52.00
2019-05-06T18:25:19.782Z,28.00
2019-05-06T18:50:42.419Z,8.00
